This is the latest recevied weather packets stored in our database for station/object KD7JB. If no packets are shown the sender has not sent any weather packets the latest 1 day(s).
| Time | Temp. | Humidity | Pressure | Rain* | Wind** | Luminosity | Snow |
|---|---|---|---|---|---|---|---|
| 1778016311 | 19.44° C | 46% | 1175.4 hPa | 0 mm | 0.45 m/s, 72° | 698 W/m² | - |
| 1778016009 | 20° C | 45% | 1175.2 hPa | 0 mm | 0.45 m/s, 279° | 85 W/m² | - |
| 1778015706 | 19.44° C | 48% | 1175.2 hPa | 0 mm | 0.89 m/s, 187° | 729 W/m² | - |
| 1778015402 | 20.56° C | 44% | 1175.2 hPa | 0 mm | 1.79 m/s, 286° | 582 W/m² | - |
| 1778015099 | 20.56° C | 45% | 1175.3 hPa | 0 mm | 5.36 m/s, 299° | 720 W/m² | - |
| 1778014796 | 20.56° C | 43% | 1175.3 hPa | 0 mm | 0 m/s | 758 W/m² | - |
| 1778014495 | 20.56° C | 44% | 1175.4 hPa | 0 mm | 0 m/s | 752 W/m² | - |
| 1778014191 | 20° C | 45% | 1175.4 hPa | 0 mm | 0 m/s | 750 W/m² | - |
| 1778013889 | 19.44° C | 45% | 1175.4 hPa | 0 mm | 0.45 m/s, 282° | 754 W/m² | - |
| 1778013586 | 19.44° C | 43% | 1175.4 hPa | 0 mm | 1.34 m/s, 139° | 749 W/m² | - |
| 1778013282 | 18.89° C | 45% | 1175.6 hPa | 0 mm | 1.79 m/s, 114° | 752 W/m² | - |
| 1778012978 | 19.44° C | 45% | 1175.7 hPa | 0 mm | 1.79 m/s, 126° | 760 W/m² | - |
| 1778012675 | 18.89° C | 46% | 1175.6 hPa | 0 mm | 2.24 m/s, 181° | 757 W/m² | - |
| 1778012371 | 20° C | 44% | 1175.5 hPa | 0 mm | 2.24 m/s, 121° | 768 W/m² | - |
| 1778012068 | 19.44° C | 44% | 1175.6 hPa | 0 mm | 0 m/s | 771 W/m² | - |
| 1778011767 | 18.89° C | 46% | 1175.4 hPa | 0 mm | 1.34 m/s, 154° | 767 W/m² | - |
| 1778011464 | 18.89° C | 46% | 1175.6 hPa | 0 mm | 1.34 m/s, 219° | 798 W/m² | - |
| 1778011159 | 18.33° C | 47% | 1175.6 hPa | 0 mm | 2.24 m/s, 191° | 793 W/m² | - |
| 1778010857 | 18.33° C | 47% | 1175.6 hPa | 0 mm | 1.79 m/s, 195° | 466 W/m² | - |
| 1778010554 | 18.33° C | 46% | 1175.5 hPa | 0 mm | 2.24 m/s, 212° | 278 W/m² | - |
| 1778010252 | 18.89° C | 47% | 1175.6 hPa | 0 mm | 1.79 m/s, 184° | 342 W/m² | - |
| 1778009951 | 18.89° C | 45% | 1175.5 hPa | 0 mm | 2.68 m/s, 197° | 780 W/m² | - |
| 1778009649 | 18.89° C | 47% | 1175.6 hPa | 0 mm | 1.34 m/s, 87° | 757 W/m² | - |
| 1778009347 | 18.89° C | 46% | 1175.7 hPa | 0 mm | 1.34 m/s, 354° | 762 W/m² | - |
| 1778009045 | 18.33° C | 46% | 1175.8 hPa | 0 mm | 1.79 m/s, 156° | 756 W/m² | - |
* Rain latest hour (hover to see other rain measurements)
** Current wind speed in m/s (hover to see current wind gust speed)